sensor_id;sensor_type;location;lat;lon;timestamp;pressure;altitude;pressure_sealevel;temperature;humidity
19286;BME280;9776;50.798;6.430;2022-11-25T00:01:38;99717.31;;;9.68;70.99
19286;BME280;9776;50.798;6.430;2022-11-25T00:04:04;99726.19;;;9.67;71.21
19286;BME280;9776;50.798;6.430;2022-11-25T00:06:32;99721.31;;;9.72;71.17
19286;BME280;9776;50.798;6.430;2022-11-25T00:09:01;99720.47;;;9.72;71.20
19286;BME280;9776;50.798;6.430;2022-11-25T00:11:28;99709.94;;;9.72;71.36
19286;BME280;9776;50.798;6.430;2022-11-25T00:13:57;99711.41;;;9.74;71.49
19286;BME280;9776;50.798;6.430;2022-11-25T00:16:24;99716.50;;;9.76;71.43
19286;BME280;9776;50.798;6.430;2022-11-25T00:18:53;99707.19;;;9.81;71.23
19286;BME280;9776;50.798;6.430;2022-11-25T00:21:21;99715.56;;;9.85;71.05
19286;BME280;9776;50.798;6.430;2022-11-25T00:23:50;99709.31;;;9.86;71.15
19286;BME280;9776;50.798;6.430;2022-11-25T00:26:18;99713.31;;;9.90;71.19
19286;BME280;9776;50.798;6.430;2022-11-25T00:28:45;99727.28;;;9.90;71.44
19286;BME280;9776;50.798;6.430;2022-11-25T00:31:16;99711.31;;;9.92;71.34
19286;BME280;9776;50.798;6.430;2022-11-25T00:33:42;99712.28;;;9.91;71.44
19286;BME280;9776;50.798;6.430;2022-11-25T00:36:15;99713.94;;;9.92;71.11
19286;BME280;9776;50.798;6.430;2022-11-25T00:38:42;99713.78;;;9.93;71.26
19286;BME280;9776;50.798;6.430;2022-11-25T00:41:09;99711.84;;;9.95;71.38
19286;BME280;9776;50.798;6.430;2022-11-25T00:43:53;99705.09;;;10.01;71.27
19286;BME280;9776;50.798;6.430;2022-11-25T00:46:39;99709.88;;;10.05;71.08
19286;BME280;9776;50.798;6.430;2022-11-25T00:49:06;99704.59;;;10.05;71.17
19286;BME280;9776;50.798;6.430;2022-11-25T00:51:32;99699.19;;;10.07;71.36
19286;BME280;9776;50.798;6.430;2022-11-25T00:53:59;99706.91;;;10.08;71.29
19286;BME280;9776;50.798;6.430;2022-11-25T00:56:26;99700.81;;;10.08;71.42
19286;BME280;9776;50.798;6.430;2022-11-25T00:58:55;99704.94;;;10.10;71.02
19286;BME280;9776;50.798;6.430;2022-11-25T01:01:21;99701.50;;;10.10;71.16
19286;BME280;9776;50.798;6.430;2022-11-25T01:03:50;99704.94;;;10.10;71.17
19286;BME280;9776;50.798;6.430;2022-11-25T01:06:18;99704.94;;;10.10;71.31
19286;BME280;9776;50.798;6.430;2022-11-25T01:08:45;99696.88;;;10.12;71.19
19286;BME280;9776;50.798;6.430;2022-11-25T01:11:13;99698.53;;;10.13;71.28
19286;BME280;9776;50.798;6.430;2022-11-25T01:13:40;99694.09;;;10.13;71.28
19286;BME280;9776;50.798;6.430;2022-11-25T01:16:10;99689.66;;;10.14;71.34
19286;BME280;9776;50.798;6.430;2022-11-25T01:18:36;99692.94;;;10.16;71.25
19286;BME280;9776;50.798;6.430;2022-11-25T01:21:09;99690.16;;;10.17;71.14
19286;BME280;9776;50.798;6.430;2022-11-25T01:23:36;99698.06;;;10.17;71.07
19286;BME280;9776;50.798;6.430;2022-11-25T01:26:05;99697.09;;;10.18;71.17
19286;BME280;9776;50.798;6.430;2022-11-25T01:28:32;99704.00;;;10.19;71.04
19286;BME280;9776;50.798;6.430;2022-11-25T01:31:00;99702.03;;;10.21;70.96
19286;BME280;9776;50.798;6.430;2022-11-25T01:33:27;99704.50;;;10.23;71.02
19286;BME280;9776;50.798;6.430;2022-11-25T01:35:59;99706.16;;;10.24;71.04
19286;BME280;9776;50.798;6.430;2022-11-25T01:38:27;99704.50;;;10.23;70.91
19286;BME280;9776;50.798;6.430;2022-11-25T01:40:53;99692.28;;;10.22;70.87
19286;BME280;9776;50.798;6.430;2022-11-25T01:43:20;99688.69;;;10.23;70.97
19286;BME280;9776;50.798;6.430;2022-11-25T01:45:46;99690.81;;;10.27;70.86
19286;BME280;9776;50.798;6.430;2022-11-25T01:48:15;99693.63;;;10.26;70.73
19286;BME280;9776;50.798;6.430;2022-11-25T01:50:44;99688.34;;;10.26;70.77
19286;BME280;9776;50.798;6.430;2022-11-25T01:53:13;99685.06;;;10.24;70.66
19286;BME280;9776;50.798;6.430;2022-11-25T01:55:45;99687.00;;;10.22;70.62
19286;BME280;9776;50.798;6.430;2022-11-25T01:58:17;99691.81;;;10.18;70.91
19286;BME280;9776;50.798;6.430;2022-11-25T02:00:46;99693.78;;;10.16;70.68
19286;BME280;9776;50.798;6.430;2022-11-25T02:03:18;99691.44;;;10.13;70.93
19286;BME280;9776;50.798;6.430;2022-11-25T02:05:48;99698.53;;;10.13;70.81
19286;BME280;9776;50.798;6.430;2022-11-25T02:08:18;99690.94;;;10.10;70.96
19286;BME280;9776;50.798;6.430;2022-11-25T02:10:46;99693.56;;;10.10;70.93
19286;BME280;9776;50.798;6.430;2022-11-25T02:13:13;99698.66;;;10.03;71.13
19286;BME280;9776;50.798;6.430;2022-11-25T02:15:40;99692.53;;;9.95;71.43
19286;BME280;9776;50.798;6.430;2022-11-25T02:18:07;99692.53;;;9.87;71.72
19286;BME280;9776;50.798;6.430;2022-11-25T02:20:34;99685.09;;;9.82;71.93
19286;BME280;9776;50.798;6.430;2022-11-25T02:23:05;99688.03;;;9.79;71.90
19286;BME280;9776;50.798;6.430;2022-11-25T02:25:37;99674.88;;;9.79;71.82
19286;BME280;9776;50.798;6.430;2022-11-25T02:28:07;99680.81;;;9.81;71.69
19286;BME280;9776;50.798;6.430;2022-11-25T02:30:35;99679.31;;;9.79;71.99
19286;BME280;9776;50.798;6.430;2022-11-25T02:33:02;99675.69;;;9.80;71.88
19286;BME280;9776;50.798;6.430;2022-11-25T02:35:32;99683.47;;;9.81;71.74
19286;BME280;9776;50.798;6.430;2022-11-25T02:38:06;99679.16;;;9.80;71.79
19286;BME280;9776;50.798;6.430;2022-11-25T02:40:38;99691.38;;;9.81;71.96
19286;BME280;9776;50.798;6.430;2022-11-25T02:43:06;99700.59;;;9.85;71.66
19286;BME280;9776;50.798;6.430;2022-11-25T02:45:40;99713.31;;;9.90;71.61
19286;BME280;9776;50.798;6.430;2022-11-25T02:48:08;99718.22;;;9.93;71.41
19286;BME280;9776;50.798;6.430;2022-11-25T02:50:35;99727.28;;;9.90;71.38
19286;BME280;9776;50.798;6.430;2022-11-25T02:53:02;99719.06;;;9.93;71.42
19286;BME280;9776;50.798;6.430;2022-11-25T02:55:29;99715.44;;;9.94;71.54
19286;BME280;9776;50.798;6.430;2022-11-25T02:57:57;99714.09;;;9.90;71.71
19286;BME280;9776;50.798;6.430;2022-11-25T03:00:23;99711.63;;;9.89;71.74
19286;BME280;9776;50.798;6.430;2022-11-25T03:02:51;99706.19;;;9.90;71.49
19286;BME280;9776;50.798;6.430;2022-11-25T03:05:19;99709.66;;;9.91;71.42
19286;BME280;9776;50.798;6.430;2022-11-25T03:07:45;99717.91;;;9.96;71.55
19286;BME280;9776;50.798;6.430;2022-11-25T03:10:12;99712.47;;;9.97;71.25
19286;BME280;9776;50.798;6.430;2022-11-25T03:12:39;99716.28;;;9.95;71.52
19286;BME280;9776;50.798;6.430;2022-11-25T03:15:08;99713.63;;;9.95;71.27
19286;BME280;9776;50.798;6.430;2022-11-25T03:17:35;99722.38;;;9.95;71.49
19286;BME280;9776;50.798;6.430;2022-11-25T03:20:03;99723.69;;;9.99;71.37
19286;BME280;9776;50.798;6.430;2022-11-25T03:22:29;99717.09;;;9.95;71.36
19286;BME280;9776;50.798;6.430;2022-11-25T03:24:56;99726.50;;;9.98;71.49
19286;BME280;9776;50.798;6.430;2022-11-25T03:27:22;99731.44;;;10.01;71.34
19286;BME280;9776;50.798;6.430;2022-11-25T03:29:49;99734.91;;;10.01;71.18
19286;BME280;9776;50.798;6.430;2022-11-25T03:32:17;99726.00;;;10.02;71.05
19286;BME280;9776;50.798;6.430;2022-11-25T03:34:44;99732.28;;;10.01;71.15
19286;BME280;9776;50.798;6.430;2022-11-25T03:37:10;99739.19;;;10.02;71.18
19286;BME280;9776;50.798;6.430;2022-11-25T03:39:37;99738.03;;;10.05;71.12
19286;BME280;9776;50.798;6.430;2022-11-25T03:42:04;99738.88;;;10.05;70.93
19286;BME280;9776;50.798;6.430;2022-11-25T03:44:30;99743.16;;;10.06;71.11
19286;BME280;9776;50.798;6.430;2022-11-25T03:46:57;99746.31;;;10.10;70.94
19286;BME280;9776;50.798;6.430;2022-11-25T03:49:25;99746.69;;;10.15;70.62
19286;BME280;9776;50.798;6.430;2022-11-25T03:51:52;99755.75;;;10.20;70.54
19286;BME280;9776;50.798;6.430;2022-11-25T03:54:18;99752.81;;;10.23;70.52
19286;BME280;9776;50.798;6.430;2022-11-25T03:56:45;99748.84;;;10.27;70.59
19286;BME280;9776;50.798;6.430;2022-11-25T03:59:12;99758.59;;;10.27;70.70
19286;BME280;9776;50.798;6.430;2022-11-25T04:01:38;99760.22;;;10.28;70.57
19286;BME280;9776;50.798;6.430;2022-11-25T04:04:05;99758.91;;;10.32;70.74
19286;BME280;9776;50.798;6.430;2022-11-25T04:06:33;99763.03;;;10.35;70.80
19286;BME280;9776;50.798;6.430;2022-11-25T04:09:00;99757.94;;;10.33;70.74
19286;BME280;9776;50.798;6.430;2022-11-25T04:11:26;99760.59;;;10.33;70.89
19286;BME280;9776;50.798;6.430;2022-11-25T04:14:26;99756.94;;;10.34;70.99
19286;BME280;9776;50.798;6.430;2022-11-25T04:16:52;99757.59;;;10.36;71.02
19286;BME280;9776;50.798;6.430;2022-11-25T04:19:18;99754.31;;;10.34;71.33
19286;BME280;9776;50.798;6.430;2022-11-25T04:21:46;99756.28;;;10.32;71.28
19286;BME280;9776;50.798;6.430;2022-11-25T04:24:13;99752.81;;;10.32;71.81
19286;BME280;9776;50.798;6.430;2022-11-25T04:26:40;99753.47;;;10.34;71.67
19286;BME280;9776;50.798;6.430;2022-11-25T04:29:06;99749.34;;;10.31;71.89
19286;BME280;9776;50.798;6.430;2022-11-25T04:31:33;99756.94;;;10.34;72.02
19286;BME280;9776;50.798;6.430;2022-11-25T04:34:02;99748.84;;;10.27;72.04
19286;BME280;9776;50.798;6.430;2022-11-25T04:36:28;99745.41;;;10.27;72.17
19286;BME280;9776;50.798;6.430;2022-11-25T04:38:57;99763.66;;;10.20;72.35
19286;BME280;9776;50.798;6.430;2022-11-25T04:41:23;99758.72;;;10.17;72.49
19286;BME280;9776;50.798;6.430;2022-11-25T04:43:50;99776.34;;;10.17;72.65
19286;BME280;9776;50.798;6.430;2022-11-25T04:46:19;99771.59;;;10.20;72.30
19286;BME280;9776;50.798;6.430;2022-11-25T04:48:47;99776.84;;;10.20;72.40
19286;BME280;9776;50.798;6.430;2022-11-25T04:51:13;99775.19;;;10.19;72.45
19286;BME280;9776;50.798;6.430;2022-11-25T04:53:40;99785.09;;;10.17;72.60
19286;BME280;9776;50.798;6.430;2022-11-25T04:56:15;99780.41;;;10.11;72.56
19286;BME280;9776;50.798;6.430;2022-11-25T04:58:41;99786.00;;;10.08;72.56
19286;BME280;9776;50.798;6.430;2022-11-25T05:01:26;99788.00;;;10.06;72.90
19286;BME280;9776;50.798;6.430;2022-11-25T05:03:52;99785.66;;;10.03;72.93
19286;BME280;9776;50.798;6.430;2022-11-25T05:06:19;99776.72;;;9.96;72.99
19286;BME280;9776;50.798;6.430;2022-11-25T05:08:47;99785.63;;;9.95;73.30
19286;BME280;9776;50.798;6.430;2022-11-25T05:11:15;99771.78;;;9.93;73.39
19286;BME280;9776;50.798;6.430;2022-11-25T05:13:42;99777.34;;;9.90;73.42
19286;BME280;9776;50.798;6.430;2022-11-25T05:16:09;99787.91;;;9.90;73.48
19286;BME280;9776;50.798;6.430;2022-11-25T05:18:35;99781.84;;;9.90;73.46
19286;BME280;9776;50.798;6.430;2022-11-25T05:21:03;99790.53;;;9.90;73.59
19286;BME280;9776;50.798;6.430;2022-11-25T05:23:30;99790.53;;;9.90;73.60
19286;BME280;9776;50.798;6.430;2022-11-25T05:25:58;99794.53;;;9.94;73.68
19286;BME280;9776;50.798;6.430;2022-11-25T05:28:27;99792.03;;;9.93;73.90
19286;BME280;9776;50.798;6.430;2022-11-25T05:30:55;99800.28;;;9.90;73.99
19286;BME280;9776;50.798;6.430;2022-11-25T05:33:22;99801.78;;;9.92;73.91
19286;BME280;9776;50.798;6.430;2022-11-25T05:35:56;99804.72;;;9.89;73.79
19286;BME280;9776;50.798;6.430;2022-11-25T05:38:24;99808.50;;;9.87;74.07
19286;BME280;9776;50.798;6.430;2022-11-25T05:40:51;99806.84;;;9.86;74.22
19286;BME280;9776;50.798;6.430;2022-11-25T05:43:18;99816.25;;;9.88;74.29
19286;BME280;9776;50.798;6.430;2022-11-25T05:45:46;99830.38;;;9.87;74.22
19286;BME280;9776;50.798;6.430;2022-11-25T05:48:13;99833.88;;;9.88;74.48
19286;BME280;9776;50.798;6.430;2022-11-25T05:50:40;99826.78;;;9.88;74.48
19286;BME280;9776;50.798;6.430;2022-11-25T05:53:07;99827.63;;;9.89;74.65
19286;BME280;9776;50.798;6.430;2022-11-25T05:55:33;99836.50;;;9.88;74.63
19286;BME280;9776;50.798;6.430;2022-11-25T05:58:00;99840.94;;;9.87;74.78
19286;BME280;9776;50.798;6.430;2022-11-25T06:00:27;99838.47;;;9.86;74.74
19286;BME280;9776;50.798;6.430;2022-11-25T06:02:55;99853.97;;;9.89;74.73
19286;BME280;9776;50.798;6.430;2022-11-25T06:05:22;99844.25;;;9.89;74.73
19286;BME280;9776;50.798;6.430;2022-11-25T06:07:49;99850.38;;;9.90;74.68
19286;BME280;9776;50.798;6.430;2022-11-25T06:10:16;99851.47;;;9.87;74.48
19286;BME280;9776;50.798;6.430;2022-11-25T06:12:43;99856.75;;;9.87;74.47
19286;BME280;9776;50.798;6.430;2022-11-25T06:15:10;99859.38;;;9.87;74.65
19286;BME280;9776;50.798;6.430;2022-11-25T06:17:37;99868.59;;;9.83;74.74
19286;BME280;9776;50.798;6.430;2022-11-25T06:20:06;99873.72;;;9.85;74.66
19286;BME280;9776;50.798;6.430;2022-11-25T06:22:33;99876.81;;;9.80;74.65
19286;BME280;9776;50.798;6.430;2022-11-25T06:25:00;99889.84;;;9.82;74.80
19286;BME280;9776;50.798;6.430;2022-11-25T06:27:27;99883.53;;;9.75;74.66
19286;BME280;9776;50.798;6.430;2022-11-25T06:29:53;99880.69;;;9.68;74.98
19286;BME280;9776;50.798;6.430;2022-11-25T06:32:20;99885.06;;;9.59;75.20
19286;BME280;9776;50.798;6.430;2022-11-25T06:34:47;99889.28;;;9.52;75.18
19286;BME280;9776;50.798;6.430;2022-11-25T06:37:15;99885.16;;;9.50;75.20
19286;BME280;9776;50.798;6.430;2022-11-25T06:39:41;99886.47;;;9.46;75.42
19286;BME280;9776;50.798;6.430;2022-11-25T06:42:08;99885.41;;;9.39;75.39
19286;BME280;9776;50.798;6.430;2022-11-25T06:44:34;99883.06;;;9.36;75.68
19286;BME280;9776;50.798;6.430;2022-11-25T06:47:01;99884.50;;;9.30;75.69
19286;BME280;9776;50.798;6.430;2022-11-25T06:49:28;99884.28;;;9.24;75.63
19286;BME280;9776;50.798;6.430;2022-11-25T06:51:54;99886.13;;;9.23;75.72
19286;BME280;9776;50.798;6.430;2022-11-25T06:54:22;99891.53;;;9.22;75.84
19286;BME280;9776;50.798;6.430;2022-11-25T06:56:49;99887.38;;;9.19;75.89
19286;BME280;9776;50.798;6.430;2022-11-25T06:59:18;99894.63;;;9.17;75.74
19286;BME280;9776;50.798;6.430;2022-11-25T07:01:45;99895.75;;;9.15;75.94
19286;BME280;9776;50.798;6.430;2022-11-25T07:04:11;99898.53;;;9.13;75.89
19286;BME280;9776;50.798;6.430;2022-11-25T07:06:38;99902.13;;;9.12;75.87
19286;BME280;9776;50.798;6.430;2022-11-25T07:09:05;99900.31;;;9.12;75.77
19286;BME280;9776;50.798;6.430;2022-11-25T07:11:35;99914.63;;;9.10;76.12
19286;BME280;9776;50.798;6.430;2022-11-25T07:14:05;99911.44;;;9.06;76.02
19286;BME280;9776;50.798;6.430;2022-11-25T07:16:32;99920.34;;;9.05;76.22
19286;BME280;9776;50.798;6.430;2022-11-25T07:19:00;99927.41;;;9.05;76.26
19286;BME280;9776;50.798;6.430;2022-11-25T07:21:28;99931.84;;;9.04;76.16
19286;BME280;9776;50.798;6.430;2022-11-25T07:23:57;99936.28;;;9.04;76.32
19286;BME280;9776;50.798;6.430;2022-11-25T07:26:25;99957.19;;;9.05;76.07
19286;BME280;9776;50.798;6.430;2022-11-25T07:28:57;99946.66;;;9.05;76.13
19286;BME280;9776;50.798;6.430;2022-11-25T07:31:26;99943.19;;;9.05;76.37
19286;BME280;9776;50.798;6.430;2022-11-25T07:33:55;99939.06;;;9.02;76.30
19286;BME280;9776;50.798;6.430;2022-11-25T07:36:22;99955.69;;;9.03;76.51
19286;BME280;9776;50.798;6.430;2022-11-25T07:38:49;99959.81;;;9.05;76.22
19286;BME280;9776;50.798;6.430;2022-11-25T07:41:17;99956.91;;;9.08;76.22
19286;BME280;9776;50.798;6.430;2022-11-25T07:43:46;99969.06;;;9.09;76.23
19286;BME280;9776;50.798;6.430;2022-11-25T07:46:15;99973.38;;;9.10;76.38
19286;BME280;9776;50.798;6.430;2022-11-25T07:48:42;99973.06;;;9.13;76.15
19286;BME280;9776;50.798;6.430;2022-11-25T07:51:13;99979.72;;;9.18;76.29
19286;BME280;9776;50.798;6.430;2022-11-25T07:53:40;99972.63;;;9.18;76.18
19286;BME280;9776;50.798;6.430;2022-11-25T07:56:07;99974.13;;;9.21;76.24
19286;BME280;9776;50.798;6.430;2022-11-25T07:58:33;99972.19;;;9.23;76.22
19286;BME280;9776;50.798;6.430;2022-11-25T08:01:01;99976.03;;;9.28;76.25
19286;BME280;9776;50.798;6.430;2022-11-25T08:03:30;99981.66;;;9.33;76.04
19286;BME280;9776;50.798;6.430;2022-11-25T08:05:59;99983.47;;;9.33;76.22
19286;BME280;9776;50.798;6.430;2022-11-25T08:08:26;99987.47;;;9.37;76.08
19286;BME280;9776;50.798;6.430;2022-11-25T08:10:52;99989.25;;;9.36;75.85
19286;BME280;9776;50.798;6.430;2022-11-25T08:13:19;99998.00;;;9.37;76.14
19286;BME280;9776;50.798;6.430;2022-11-25T08:15:46;100002.81;;;9.41;76.00
19286;BME280;9776;50.798;6.430;2022-11-25T08:18:12;100005.13;;;9.44;75.90
19286;BME280;9776;50.798;6.430;2022-11-25T08:20:40;100010.28;;;9.46;75.81
19286;BME280;9776;50.798;6.430;2022-11-25T08:23:07;100007.34;;;9.49;76.07
19286;BME280;9776;50.798;6.430;2022-11-25T08:25:38;100012.97;;;9.54;75.96
19286;BME280;9776;50.798;6.430;2022-11-25T08:28:05;100012.00;;;9.55;75.73
19286;BME280;9776;50.798;6.430;2022-11-25T08:30:32;100014.66;;;9.55;75.97
19286;BME280;9776;50.798;6.430;2022-11-25T08:32:59;100028.31;;;9.58;75.74
19286;BME280;9776;50.798;6.430;2022-11-25T08:35:26;100029.81;;;9.61;75.71
19286;BME280;9776;50.798;6.430;2022-11-25T08:37:54;100030.53;;;9.63;75.58
19286;BME280;9776;50.798;6.430;2022-11-25T08:40:20;100038.25;;;9.64;75.67
19286;BME280;9776;50.798;6.430;2022-11-25T08:42:47;100045.03;;;9.67;75.51
19286;BME280;9776;50.798;6.430;2022-11-25T08:45:14;100052.66;;;9.70;75.62
19286;BME280;9776;50.798;6.430;2022-11-25T08:47:40;100053.34;;;9.72;75.50
19286;BME280;9776;50.798;6.430;2022-11-25T08:50:08;100050.25;;;9.77;75.50
19286;BME280;9776;50.798;6.430;2022-11-25T08:52:35;100051.91;;;9.78;75.52
19286;BME280;9776;50.798;6.430;2022-11-25T08:55:04;100057.25;;;9.86;75.41
19286;BME280;9776;50.798;6.430;2022-11-25T08:57:31;100059.41;;;9.90;75.13
19286;BME280;9776;50.798;6.430;2022-11-25T08:59:57;100061.75;;;9.93;75.22
19286;BME280;9776;50.798;6.430;2022-11-25T09:02:24;100060.13;;;9.92;75.14
19286;BME280;9776;50.798;6.430;2022-11-25T09:04:51;100053.84;;;9.93;75.08
19286;BME280;9776;50.798;6.430;2022-11-25T09:07:18;100057.19;;;9.95;74.87
19286;BME280;9776;50.798;6.430;2022-11-25T09:09:44;100070.88;;;9.99;74.83
19286;BME280;9776;50.798;6.430;2022-11-25T09:12:12;100078.63;;;10.00;74.62
19286;BME280;9776;50.798;6.430;2022-11-25T09:14:39;100083.06;;;10.00;74.63
19286;BME280;9776;50.798;6.430;2022-11-25T09:17:07;100085.94;;;10.06;74.57
19286;BME280;9776;50.798;6.430;2022-11-25T09:19:34;100090.09;;;10.09;74.27
19286;BME280;9776;50.798;6.430;2022-11-25T09:22:01;100092.56;;;10.10;74.14
19286;BME280;9776;50.798;6.430;2022-11-25T09:24:27;100091.31;;;10.14;74.05
19286;BME280;9776;50.798;6.430;2022-11-25T09:26:54;100109.31;;;10.19;74.17
19286;BME280;9776;50.798;6.430;2022-11-25T09:29:22;100110.00;;;10.21;73.79
19286;BME280;9776;50.798;6.430;2022-11-25T09:31:49;100116.59;;;10.25;73.71
19286;BME280;9776;50.798;6.430;2022-11-25T09:34:16;100113.66;;;10.28;73.83
19286;BME280;9776;50.798;6.430;2022-11-25T09:36:42;100117.00;;;10.30;73.50
19286;BME280;9776;50.798;6.430;2022-11-25T09:39:09;100125.13;;;10.37;73.60
19286;BME280;9776;50.798;6.430;2022-11-25T09:41:49;100131.38;;;10.36;73.32
19286;BME280;9776;50.798;6.430;2022-11-25T09:44:47;100124.13;;;10.38;73.20
19286;BME280;9776;50.798;6.430;2022-11-25T09:47:43;100138.34;;;10.45;72.98
19286;BME280;9776;50.798;6.430;2022-11-25T09:50:17;100129.16;;;10.49;73.06
19286;BME280;9776;50.798;6.430;2022-11-25T09:52:51;100136.66;;;10.53;72.65
19286;BME280;9776;50.798;6.430;2022-11-25T09:55:23;100141.75;;;10.55;72.62
19286;BME280;9776;50.798;6.430;2022-11-25T09:57:59;100146.41;;;10.61;72.25
19286;BME280;9776;50.798;6.430;2022-11-25T10:00:36;100150.72;;;10.62;72.31
19286;BME280;9776;50.798;6.430;2022-11-25T10:03:08;100149.28;;;10.67;72.13
19286;BME280;9776;50.798;6.430;2022-11-25T10:05:41;100155.75;;;10.73;71.82
19286;BME280;9776;50.798;6.430;2022-11-25T10:08:11;100161.09;;;10.81;71.70
19286;BME280;9776;50.798;6.430;2022-11-25T10:10:42;100177.63;;;10.91;71.39
19286;BME280;9776;50.798;6.430;2022-11-25T10:13:14;100174.91;;;11.01;70.89
19286;BME280;9776;50.798;6.430;2022-11-25T10:15:45;100178.41;;;11.09;70.71
19286;BME280;9776;50.798;6.430;2022-11-25T10:18:18;100182.97;;;11.25;70.44
19286;BME280;9776;50.798;6.430;2022-11-25T10:20:48;100179.72;;;11.31;70.24
19286;BME280;9776;50.798;6.430;2022-11-25T10:23:20;100177.97;;;11.48;69.88
19286;BME280;9776;50.798;6.430;2022-11-25T10:25:51;100180.47;;;11.57;69.51
19286;BME280;9776;50.798;6.430;2022-11-25T10:28:20;100179.47;;;11.58;69.71
19286;BME280;9776;50.798;6.430;2022-11-25T10:30:53;100194.19;;;11.61;69.52
19286;BME280;9776;50.798;6.430;2022-11-25T10:33:27;100185.91;;;11.56;69.58
19286;BME280;9776;50.798;6.430;2022-11-25T10:35:57;100183.75;;;11.51;69.75
19286;BME280;9776;50.798;6.430;2022-11-25T10:38:27;100191.53;;;11.53;69.92
19286;BME280;9776;50.798;6.430;2022-11-25T10:40:56;100197.47;;;11.55;69.64
19286;BME280;9776;50.798;6.430;2022-11-25T10:43:22;100193.34;;;11.60;69.34
19286;BME280;9776;50.798;6.430;2022-11-25T10:45:56;100192.13;;;11.80;68.97
19286;BME280;9776;50.798;6.430;2022-11-25T10:48:39;100201.63;;;11.91;68.61
19286;BME280;9776;50.798;6.430;2022-11-25T10:51:16;100201.97;;;12.12;68.09
19286;BME280;9776;50.798;6.430;2022-11-25T10:54:08;100205.97;;;12.24;67.60
19286;BME280;9776;50.798;6.430;2022-11-25T10:56:41;100210.81;;;12.45;67.03
19286;BME280;9776;50.798;6.430;2022-11-25T10:59:12;100211.66;;;12.70;66.79
19286;BME280;9776;50.798;6.430;2022-11-25T11:01:41;100211.78;;;13.17;65.64
19286;BME280;9776;50.798;6.430;2022-11-25T11:04:11;100226.22;;;14.00;63.70
19286;BME280;9776;50.798;6.430;2022-11-25T11:06:41;100221.38;;;14.42;62.21
19286;BME280;9776;50.798;6.430;2022-11-25T11:09:30;100225.88;;;14.42;62.34
19286;BME280;9776;50.798;6.430;2022-11-25T11:12:06;100234.28;;;14.14;62.65
19286;BME280;9776;50.798;6.430;2022-11-25T11:14:38;100239.63;;;13.76;63.65
19286;BME280;9776;50.798;6.430;2022-11-25T11:17:20;100231.09;;;13.49;64.16
19286;BME280;9776;50.798;6.430;2022-11-25T11:20:00;100236.59;;;13.40;64.16
19286;BME280;9776;50.798;6.430;2022-11-25T11:22:27;100245.69;;;13.45;64.29
19286;BME280;9776;50.798;6.430;2022-11-25T11:25:05;100243.09;;;13.29;64.37
19286;BME280;9776;50.798;6.430;2022-11-25T11:27:35;100243.38;;;13.42;63.73
19286;BME280;9776;50.798;6.430;2022-11-25T11:30:08;100254.53;;;13.77;63.05
19286;BME280;9776;50.798;6.430;2022-11-25T11:32:38;100239.09;;;13.80;62.82
19286;BME280;9776;50.798;6.430;2022-11-25T11:35:16;100235.97;;;13.77;62.68
19286;BME280;9776;50.798;6.430;2022-11-25T11:37:48;100236.91;;;14.23;61.71
19286;BME280;9776;50.798;6.430;2022-11-25T11:40:23;100240.03;;;15.17;59.13
19286;BME280;9776;50.798;6.430;2022-11-25T11:43:01;100237.69;;;15.95;56.95
19286;BME280;9776;50.798;6.430;2022-11-25T11:45:44;100232.72;;;16.64;55.40
19286;BME280;9776;50.798;6.430;2022-11-25T11:48:24;100238.53;;;16.95;54.42
19286;BME280;9776;50.798;6.430;2022-11-25T11:51:00;100244.31;;;17.26;53.65
19286;BME280;9776;50.798;6.430;2022-11-25T11:53:30;100236.31;;;17.54;53.03
19286;BME280;9776;50.798;6.430;2022-11-25T11:56:05;100247.78;;;17.89;52.33
19286;BME280;9776;50.798;6.430;2022-11-25T11:58:46;100244.66;;;18.33;51.10
19286;BME280;9776;50.798;6.430;2022-11-25T12:01:25;100254.44;;;18.66;50.17
19286;BME280;9776;50.798;6.430;2022-11-25T12:04:00;100252.63;;;19.39;48.61
19286;BME280;9776;50.798;6.430;2022-11-25T12:06:32;100262.81;;;19.88;47.33
19286;BME280;9776;50.798;6.430;2022-11-25T12:09:02;100256.44;;;19.83;47.07
19286;BME280;9776;50.798;6.430;2022-11-25T12:11:34;100257.75;;;19.41;47.64
19286;BME280;9776;50.798;6.430;2022-11-25T12:14:06;100272.75;;;19.28;47.97
19286;BME280;9776;50.798;6.430;2022-11-25T12:16:39;100264.53;;;18.91;48.29
19286;BME280;9776;50.798;6.430;2022-11-25T12:19:15;100267.72;;;18.40;49.07
19286;BME280;9776;50.798;6.430;2022-11-25T12:21:49;100269.00;;;17.97;49.78
19286;BME280;9776;50.798;6.430;2022-11-25T12:24:22;100271.56;;;17.77;50.30
19286;BME280;9776;50.798;6.430;2022-11-25T12:26:56;100279.13;;;17.18;51.05
19286;BME280;9776;50.798;6.430;2022-11-25T12:29:39;100273.53;;;16.64;51.96
19286;BME280;9776;50.798;6.430;2022-11-25T12:32:29;100289.63;;;16.56;52.02
19286;BME280;9776;50.798;6.430;2022-11-25T12:35:06;100275.00;;;17.43;50.13
19286;BME280;9776;50.798;6.430;2022-11-25T12:37:44;100289.56;;;18.09;48.84
19286;BME280;9776;50.798;6.430;2022-11-25T12:40:14;100292.94;;;18.98;46.93
19286;BME280;9776;50.798;6.430;2022-11-25T12:42:44;100286.56;;;19.25;46.32
19286;BME280;9776;50.798;6.430;2022-11-25T12:45:17;100288.31;;;19.97;45.01
19286;BME280;9776;50.798;6.430;2022-11-25T12:47:47;100290.88;;;20.99;43.03
19286;BME280;9776;50.798;6.430;2022-11-25T12:50:19;100296.94;;;22.05;41.05
19286;BME280;9776;50.798;6.430;2022-11-25T12:52:53;100297.06;;;22.65;39.90
19286;BME280;9776;50.798;6.430;2022-11-25T12:55:29;100300.88;;;22.98;39.34
19286;BME280;9776;50.798;6.430;2022-11-25T12:58:16;100302.44;;;22.46;39.94
19286;BME280;9776;50.798;6.430;2022-11-25T13:07:16;100308.41;;;19.62;44.21
19286;BME280;9776;50.798;6.430;2022-11-25T13:12:56;100319.03;;;19.95;43.65
19286;BME280;9776;50.798;6.430;2022-11-25T13:15:28;100321.38;;;20.35;42.90
19286;BME280;9776;50.798;6.430;2022-11-25T13:17:58;100323.88;;;20.75;42.15
19286;BME280;9776;50.798;6.430;2022-11-25T13:20:47;100331.31;;;21.04;41.38
19286;BME280;9776;50.798;6.430;2022-11-25T13:23:26;100330.44;;;21.17;41.04
19286;BME280;9776;50.798;6.430;2022-11-25T13:28:53;100337.78;;;20.59;41.85
19286;BME280;9776;50.798;6.430;2022-11-25T13:31:22;100338.09;;;20.24;42.28
19286;BME280;9776;50.798;6.430;2022-11-25T13:34:02;100330.22;;;19.59;43.01
19286;BME280;9776;50.798;6.430;2022-11-25T13:36:44;100338.00;;;19.08;43.83
19286;BME280;9776;50.798;6.430;2022-11-25T13:39:16;100342.59;;;18.53;44.82